Time;durP1;ratioP1;P1;durP2;ratioP2;P2;SDS_P1;SDS_P2;PMS_P1;PMS_P2;Temp;Humidity;BMP_temperature;BMP_pressure;BME280_temperature;BME280_humidity;BME280_pressure;Samples;Min_cycle;Max_cycle;Signal;HPM_P1;HPM_P2
2021/08/25 00:00:06;;;;;;;2.90;2.70;;;;;;;24.35;44.97;99062.88;5055032;28;20251;-50
2021/08/25 00:02:39;;;;;;;2.80;2.60;;;;;;;24.30;45.07;99068.75;5055104;28;20209;-50
2021/08/25 00:05:08;;;;;;;2.63;2.43;;;;;;;24.31;45.30;99070.41;5054714;28;20668;-49
2021/08/25 00:07:35;;;;;;;2.70;2.50;;;;;;;24.32;44.98;99061.38;5054750;28;20181;-49
2021/08/25 00:10:01;;;;;;;2.90;2.70;;;;;;;24.34;44.86;99059.34;5054567;28;20730;-50
2021/08/25 00:12:30;;;;;;;3.07;2.77;;;;;;;24.31;45.12;99064.25;5054504;28;20687;-50
2021/08/25 00:14:57;;;;;;;2.80;2.60;;;;;;;24.24;45.07;99061.50;5054564;28;20189;-50
2021/08/25 00:17:23;;;;;;;2.80;2.60;;;;;;;24.26;45.26;99058.63;5054978;28;20193;-50
2021/08/25 00:19:50;;;;;;;3.17;2.87;;;;;;;24.24;45.13;99048.97;5054387;28;20185;-50
2021/08/25 00:22:16;;;;;;;2.60;2.40;;;;;;;24.24;45.10;99056.16;5054302;28;20769;-50
2021/08/25 00:24:43;;;;;;;2.80;2.50;;;;;;;24.26;45.23;99046.13;5054361;28;20189;-50
2021/08/25 00:27:09;;;;;;;2.60;2.40;;;;;;;24.24;45.04;99045.50;5054593;28;20188;-50
2021/08/25 00:29:36;;;;;;;2.93;2.67;;;;;;;24.25;45.15;99044.47;5052996;28;20212;-49
2021/08/25 00:32:03;;;;;;;2.80;2.60;;;;;;;24.10;45.45;99042.63;5054226;28;20217;-49
2021/08/25 00:34:29;;;;;;;3.40;2.50;;;;;;;24.03;45.63;99039.03;5054162;28;20251;-50
2021/08/25 00:36:56;;;;;;;3.20;2.53;;;;;;;24.04;45.71;99039.88;5054119;28;20190;-50
2021/08/25 00:39:22;;;;;;;3.10;2.80;;;;;;;24.00;45.68;99039.38;5054041;28;20194;-50
2021/08/25 00:41:49;;;;;;;2.53;2.33;;;;;;;23.99;45.79;99027.06;5054225;28;20236;-50
2021/08/25 00:44:16;;;;;;;3.17;2.87;;;;;;;23.94;45.67;99035.59;5053269;28;20201;-49
2021/08/25 00:46:45;;;;;;;2.80;2.60;;;;;;;23.92;45.94;99034.94;5053710;28;20198;-50
2021/08/25 00:49:17;;;;;;;2.73;2.53;;;;;;;23.97;45.79;99034.41;5054185;28;20683;-50
2021/08/25 00:51:45;;;;;;;2.50;2.30;;;;;;;23.95;45.71;99033.78;5053697;28;20667;-49
2021/08/25 00:54:14;;;;;;;2.43;2.23;;;;;;;23.93;45.88;99022.47;5054011;28;20193;-50
2021/08/25 00:56:45;;;;;;;3.17;2.93;;;;;;;23.93;45.79;99023.28;5053778;28;20610;-50
2021/08/25 00:59:13;;;;;;;2.77;2.57;;;;;;;23.90;45.99;99028.16;5053792;28;20232;-49
2021/08/25 01:01:58;;;;;;;2.83;2.63;;;;;;;23.94;45.90;99024.13;5053515;28;20602;-50
2021/08/25 01:04:41;;;;;;;3.20;2.90;;;;;;;23.92;45.80;99026.16;5053618;28;20185;-50
2021/08/25 01:07:10;;;;;;;3.47;2.87;;;;;;;23.95;45.68;99023.09;5053746;28;20227;-50
2021/08/25 01:09:38;;;;;;;3.00;2.70;;;;;;;23.94;45.70;99019.59;5053483;28;20657;-50
2021/08/25 01:12:07;;;;;;;2.93;2.73;;;;;;;23.93;45.70;99023.28;5053334;28;20216;-50
2021/08/25 01:14:34;;;;;;;2.70;2.50;;;;;;;23.99;45.62;99026.25;5053430;28;20185;-50
2021/08/25 01:17:02;;;;;;;2.87;2.67;;;;;;;24.02;45.52;99031.19;5053942;28;20212;-51
2021/08/25 01:19:32;;;;;;;3.07;2.77;;;;;;;24.00;45.64;99026.03;5053631;28;20224;-50
2021/08/25 01:21:58;;;;;;;2.50;2.30;;;;;;;24.00;45.59;99023.38;5054037;28;20251;-50
2021/08/25 01:24:25;;;;;;;2.80;2.60;;;;;;;24.01;45.58;99022.38;5053285;28;20189;-50
2021/08/25 01:26:53;;;;;;;2.90;2.70;;;;;;;24.03;45.34;99015.03;5053436;28;20656;-50
2021/08/25 01:29:29;;;;;;;2.80;2.50;;;;;;;24.06;45.50;99011.19;5053765;28;20307;-50
2021/08/25 01:31:56;;;;;;;2.87;2.67;;;;;;;24.04;45.31;99011.34;5053230;28;20760;-50
2021/08/25 01:34:23;;;;;;;3.23;2.93;;;;;;;24.08;45.26;99003.81;5053079;28;20197;-50
2021/08/25 01:36:53;;;;;;;3.37;2.97;;;;;;;24.07;45.34;98995.03;5053101;28;20323;-49
2021/08/25 01:39:20;;;;;;;2.87;2.67;;;;;;;24.15;45.21;98993.25;5053384;28;20170;-50
2021/08/25 01:41:48;;;;;;;2.93;2.73;;;;;;;24.08;45.38;99001.16;5052989;28;20193;-50
2021/08/25 01:44:15;;;;;;;3.03;2.83;;;;;;;24.10;45.15;98999.97;5052884;28;20197;-50
2021/08/25 01:46:43;;;;;;;3.30;2.60;;;;;;;24.13;45.03;98997.94;5052971;28;20738;-50
2021/08/25 01:49:14;;;;;;;2.80;2.60;;;;;;;24.13;45.02;98998.78;5052965;28;20224;-50
2021/08/25 01:51:42;;;;;;;2.90;2.70;;;;;;;24.09;45.28;98998.31;5052971;28;20304;-50
2021/08/25 01:54:10;;;;;;;3.20;3.00;;;;;;;24.05;45.34;98998.88;5052900;28;20185;-50
2021/08/25 01:56:42;;;;;;;2.80;2.60;;;;;;;24.06;45.36;98998.69;5052620;28;20676;-50
2021/08/25 01:59:08;;;;;;;2.90;2.70;;;;;;;24.12;45.27;98997.09;5053168;28;20236;-50
2021/08/25 02:01:35;;;;;;;3.07;2.87;;;;;;;24.02;45.32;98988.53;5053102;28;20247;-49
2021/08/25 02:04:02;;;;;;;3.10;2.90;;;;;;;23.95;45.57;98999.13;5052857;28;20193;-50
2021/08/25 02:06:29;;;;;;;3.23;3.03;;;;;;;23.97;45.49;98989.09;5052798;28;20302;-50
2021/08/25 02:08:55;;;;;;;3.20;2.80;;;;;;;23.95;45.56;98993.78;5053243;28;20196;-50
2021/08/25 02:11:23;;;;;;;2.83;2.63;;;;;;;23.92;45.53;98984.31;5052612;28;20216;-50
2021/08/25 02:13:50;;;;;;;3.03;2.83;;;;;;;23.94;45.62;98989.47;5052677;28;20209;-49
2021/08/25 02:16:16;;;;;;;3.00;2.80;;;;;;;23.96;45.56;98987.44;5052736;28;20185;-50
2021/08/25 02:18:43;;;;;;;2.97;2.77;;;;;;;23.95;45.50;98988.44;5052705;28;20193;-50
2021/08/25 02:21:10;;;;;;;2.77;2.57;;;;;;;23.90;45.61;98985.53;5052706;28;20250;-49
2021/08/25 02:23:37;;;;;;;3.30;2.90;;;;;;;23.90;45.51;98983.66;5052600;28;20738;-50
2021/08/25 02:26:04;;;;;;;3.17;2.83;;;;;;;23.87;45.66;98975.19;5052621;28;20632;-51
2021/08/25 02:28:31;;;;;;;3.20;2.90;;;;;;;23.89;45.60;98981.22;5052605;28;20254;-50
2021/08/25 02:30:58;;;;;;;2.97;2.77;;;;;;;23.88;45.83;98982.19;5052853;28;20190;-50
2021/08/25 02:33:25;;;;;;;2.77;2.57;;;;;;;23.91;45.57;98984.50;5052476;28;20260;-50
2021/08/25 02:35:51;;;;;;;2.83;2.63;;;;;;;23.86;45.59;98979.72;5052632;28;20193;-50
2021/08/25 02:38:17;;;;;;;3.13;2.93;;;;;;;23.85;45.63;98977.22;5052521;28;20239;-50
2021/08/25 02:40:44;;;;;;;2.87;2.67;;;;;;;23.86;45.62;98977.06;5052719;28;20258;-50
2021/08/25 02:43:10;;;;;;;3.10;2.90;;;;;;;23.90;45.48;98977.53;5052340;28;20220;-50
2021/08/25 02:45:37;;;;;;;3.33;3.03;;;;;;;23.91;45.42;98972.00;5052681;28;20194;-50
2021/08/25 02:48:04;;;;;;;3.40;3.07;;;;;;;23.92;45.55;98978.16;5052402;28;20185;-50
2021/08/25 02:50:31;;;;;;;3.03;2.80;;;;;;;23.94;45.34;98976.13;5052508;28;20660;-50
2021/08/25 02:52:57;;;;;;;3.43;2.90;;;;;;;23.94;45.42;98976.13;5052449;28;20279;-50
2021/08/25 02:55:23;;;;;;;3.20;3.00;;;;;;;23.94;45.45;98973.47;5052585;28;20619;-50
2021/08/25 02:57:50;;;;;;;3.47;3.17;;;;;;;23.91;45.35;98971.19;5052316;28;20243;-50
2021/08/25 03:00:16;;;;;;;3.20;3.00;;;;;;;23.92;45.48;98968.31;5052578;28;20597;-51
2021/08/25 03:02:43;;;;;;;3.27;2.97;;;;;;;23.90;45.50;98964.19;5052297;28;20578;-50
2021/08/25 03:05:10;;;;;;;3.40;3.10;;;;;;;23.89;45.47;98965.22;5052239;28;20587;-50
2021/08/25 03:07:37;;;;;;;3.33;3.10;;;;;;;23.86;45.51;98963.72;5052529;28;20193;-50
2021/08/25 03:10:04;;;;;;;3.20;2.90;;;;;;;23.93;45.44;98961.16;5055816;28;20255;-50
2021/08/25 03:12:30;;;;;;;2.93;2.73;;;;;;;23.95;45.40;98961.78;5055563;28;20271;-50
2021/08/25 03:14:57;;;;;;;3.10;2.77;;;;;;;23.93;45.35;98963.81;5055766;28;20239;-50
2021/08/25 03:17:23;;;;;;;3.20;2.93;;;;;;;23.92;45.42;98957.66;5055943;28;20648;-52
2021/08/25 03:19:50;;;;;;;3.60;3.30;;;;;;;23.90;45.37;98959.69;5055732;28;20721;-50
2021/08/25 03:22:16;;;;;;;3.40;3.20;;;;;;;23.96;45.28;98953.63;5055999;28;20209;-50
2021/08/25 03:24:43;;;;;;;3.30;3.10;;;;;;;23.87;45.56;98951.22;5055462;28;20659;-50
2021/08/25 03:27:09;;;;;;;3.20;2.90;;;;;;;23.88;45.37;98955.53;5055420;28;20212;-50
2021/08/25 03:29:36;;;;;;;3.00;2.80;;;;;;;23.91;45.47;98950.66;5055428;28;20239;-51
2021/08/25 03:32:02;;;;;;;3.37;3.07;;;;;;;23.87;45.49;98951.22;5055280;28;20275;-50
2021/08/25 03:34:33;;;;;;;3.10;2.90;;;;;;;23.85;45.63;98945.25;5055712;28;20181;-52
2021/08/25 03:37:00;;;;;;;3.10;2.80;;;;;;;23.87;45.42;98946.72;5055438;28;20193;-50
2021/08/25 03:39:26;;;;;;;3.90;3.60;;;;;;;23.83;45.36;98934.78;5055785;28;20198;-50
2021/08/25 03:41:53;;;;;;;3.40;3.10;;;;;;;23.84;45.52;98943.59;5055334;28;20259;-50
2021/08/25 03:44:19;;;;;;;3.10;2.90;;;;;;;23.87;45.53;98937.88;5055144;28;20208;-50
2021/08/25 03:46:46;;;;;;;3.10;2.90;;;;;;;23.87;45.44;98935.22;5055414;28;20182;-51
2021/08/25 03:49:12;;;;;;;3.40;3.10;;;;;;;23.86;45.51;98942.41;5055034;28;20276;-51
2021/08/25 03:51:39;;;;;;;3.20;2.90;;;;;;;23.81;45.56;98937.63;5054900;28;20189;-50
2021/08/25 03:54:06;;;;;;;3.40;3.17;;;;;;;23.81;45.54;98934.97;5055285;28;20238;-50
2021/08/25 03:56:32;;;;;;;3.37;3.07;;;;;;;23.78;45.60;98934.50;5054321;28;20189;-51
2021/08/25 03:58:59;;;;;;;3.50;3.20;;;;;;;23.81;45.45;98932.28;5054903;28;20185;-50
2021/08/25 04:01:25;;;;;;;3.10;2.90;;;;;;;23.82;45.48;98933.13;5054935;28;20255;-50
2021/08/25 04:03:52;;;;;;;3.07;2.87;;;;;;;23.88;45.36;98926.22;5054780;28;20237;-50
2021/08/25 04:06:18;;;;;;;3.30;3.00;;;;;;;23.88;45.33;98928.88;5054798;28;20281;-50
2021/08/25 04:08:45;;;;;;;3.20;3.00;;;;;;;23.87;45.30;98936.06;5054699;28;20586;-51
2021/08/25 04:11:17;;;;;;;3.13;2.93;;;;;;;23.86;45.32;98939.75;5055344;28;20189;-51
2021/08/25 04:13:44;;;;;;;3.17;2.90;;;;;;;23.87;45.37;98938.72;5054617;28;20552;-50
2021/08/25 04:16:10;;;;;;;3.30;3.00;;;;;;;23.89;45.35;98942.03;5054614;28;20652;-52
2021/08/25 04:18:37;;;;;;;3.40;3.10;;;;;;;23.90;45.32;98942.88;5054442;28;20599;-50
2021/08/25 04:21:03;;;;;;;2.83;2.63;;;;;;;23.93;45.23;98939.84;5054604;28;20656;-50
2021/08/25 04:23:30;;;;;;;3.60;3.30;;;;;;;23.94;45.11;98944.97;5054460;28;20209;-50
2021/08/25 04:25:56;;;;;;;2.93;2.73;;;;;;;23.96;45.04;98947.47;5054430;28;20599;-50
2021/08/25 04:28:22;;;;;;;3.83;3.47;;;;;;;23.91;45.28;98937.34;5054400;28;20193;-52
2021/08/25 04:30:49;;;;;;;3.67;3.17;;;;;;;23.90;45.22;98930.38;5054606;28;20185;-49
2021/08/25 04:33:15;;;;;;;3.20;3.00;;;;;;;23.89;45.33;98938.56;5054230;28;20639;-50
2021/08/25 04:35:42;;;;;;;3.47;2.90;;;;;;;23.89;45.24;98933.22;5054303;28;20676;-51
2021/08/25 04:38:08;;;;;;;2.93;2.73;;;;;;;23.90;45.19;98934.88;5054744;28;20197;-50
2021/08/25 04:40:35;;;;;;;3.40;3.10;;;;;;;23.92;45.08;98924.84;5054128;28;20243;-50
2021/08/25 04:43:01;;;;;;;3.37;3.17;;;;;;;23.91;45.17;98933.88;5053964;28;20233;-50
2021/08/25 04:45:28;;;;;;;3.23;2.93;;;;;;;23.90;45.23;98927.69;5054340;28;20178;-51
2021/08/25 04:47:54;;;;;;;2.90;2.70;;;;;;;23.96;45.06;98926.97;5054013;28;20714;-52
2021/08/25 04:50:22;;;;;;;3.43;3.13;;;;;;;23.96;44.98;98928.81;5054023;28;20609;-51
2021/08/25 04:52:48;;;;;;;3.10;2.90;;;;;;;24.02;44.88;98929.91;5053783;28;20209;-50
2021/08/25 04:55:15;;;;;;;3.67;3.37;;;;;;;24.00;44.97;98935.41;5054094;28;20189;-50
2021/08/25 04:57:41;;;;;;;3.20;2.90;;;;;;;24.00;44.92;98946.06;5054099;28;20192;-50
2021/08/25 05:00:08;;;;;;;3.10;2.90;;;;;;;24.02;44.76;98951.22;5054289;28;20181;-51
2021/08/25 05:02:35;;;;;;;3.30;3.10;;;;;;;24.03;44.62;98948.38;5053891;28;20221;-50
2021/08/25 05:05:02;;;;;;;3.27;2.97;;;;;;;24.08;44.65;98948.69;5054058;28;20197;-53
2021/08/25 05:07:29;;;;;;;3.30;3.00;;;;;;;24.10;44.67;98948.47;5053728;28;20239;-51
2021/08/25 05:09:55;;;;;;;3.10;2.90;;;;;;;24.13;44.27;98942.78;5054257;28;20668;-50
2021/08/25 05:12:22;;;;;;;3.23;2.93;;;;;;;24.15;44.38;98943.44;5053113;28;20209;-50
2021/08/25 05:14:48;;;;;;;3.00;2.80;;;;;;;24.20;44.44;98943.69;5053697;28;20189;-51
2021/08/25 05:17:15;;;;;;;3.27;2.97;;;;;;;24.20;44.22;98948.19;5053721;28;20189;-52
2021/08/25 05:19:41;;;;;;;3.30;3.10;;;;;;;24.31;44.10;98950.38;5053562;28;20182;-50
2021/08/25 05:22:09;;;;;;;3.60;3.30;;;;;;;24.36;43.97;98957.81;5053713;28;20258;-50
2021/08/25 05:24:36;;;;;;;3.00;2.80;;;;;;;24.40;44.02;98948.44;5052694;28;20239;-52
2021/08/25 05:27:03;;;;;;;3.40;3.10;;;;;;;24.43;43.85;98947.22;5053590;28;20193;-50
2021/08/25 05:29:30;;;;;;;2.90;2.70;;;;;;;24.36;43.99;98947.97;5053383;28;20189;-50
2021/08/25 05:31:56;;;;;;;3.13;2.93;;;;;;;24.37;44.03;98948.81;5053259;28;20740;-50
2021/08/25 05:34:23;;;;;;;3.10;2.90;;;;;;;24.32;44.16;98951.22;5053643;28;20189;-51
2021/08/25 05:36:49;;;;;;;3.40;3.20;;;;;;;24.36;44.04;98950.63;5053541;28;20613;-51
2021/08/25 05:39:16;;;;;;;2.87;2.67;;;;;;;24.40;44.02;98950.28;5053365;28;20197;-50
2021/08/25 05:41:42;;;;;;;3.20;3.00;;;;;;;24.45;43.70;98953.22;5053708;28;20197;-50
2021/08/25 05:44:09;;;;;;;3.20;2.90;;;;;;;24.44;43.95;98954.22;5053736;28;20193;-53
2021/08/25 05:46:35;;;;;;;3.00;2.80;;;;;;;24.49;43.85;98951.81;5053389;28;20597;-51
2021/08/25 05:49:02;;;;;;;3.30;3.00;;;;;;;24.56;43.50;98946.53;5053368;28;20247;-50
2021/08/25 05:51:28;;;;;;;3.17;2.97;;;;;;;24.56;43.52;98955.38;5053706;28;20185;-51
2021/08/25 05:53:55;;;;;;;3.20;3.00;;;;;;;24.56;43.64;98958.06;5053751;28;20209;-50
2021/08/25 05:56:21;;;;;;;3.13;2.93;;;;;;;24.58;43.48;98963.19;5053534;28;20194;-52
2021/08/25 05:58:48;;;;;;;3.40;3.10;;;;;;;24.57;43.41;98954.38;5053185;28;20660;-51
2021/08/25 06:01:15;;;;;;;3.10;2.90;;;;;;;24.64;43.57;98955.25;5053657;28;20189;-52
2021/08/25 06:03:42;;;;;;;3.03;2.83;;;;;;;24.63;43.38;98953.59;5053641;28;20578;-50
2021/08/25 06:06:11;;;;;;;3.20;3.00;;;;;;;24.65;43.38;98946.22;5052688;28;20190;-52
2021/08/25 06:08:39;;;;;;;3.27;3.00;;;;;;;24.58;43.48;98949.84;5050566;28;20243;-52
2021/08/25 06:11:05;;;;;;;3.23;3.03;;;;;;;24.55;43.53;98948.41;5053376;28;20602;-51
2021/08/25 06:13:37;;;;;;;3.10;2.90;;;;;;;24.49;43.69;98955.31;5053472;28;20291;-51
2021/08/25 06:16:03;;;;;;;3.00;2.80;;;;;;;24.48;43.65;98955.50;5054248;28;20198;-51
2021/08/25 06:18:30;;;;;;;2.97;2.77;;;;;;;24.43;43.71;98960.56;5053454;28;20197;-51
2021/08/25 06:20:56;;;;;;;3.00;2.80;;;;;;;24.43;44.18;98957.91;5053996;28;20563;-53
2021/08/25 06:23:23;;;;;;;2.90;2.70;;;;;;;24.42;44.03;98956.25;5053619;28;20804;-52
2021/08/25 06:25:50;;;;;;;3.30;3.10;;;;;;;24.40;43.94;98960.97;5055373;28;20185;-50
2021/08/25 06:28:16;;;;;;;3.13;2.73;;;;;;;24.42;43.80;98961.59;5055184;28;20193;-51
2021/08/25 06:30:43;;;;;;;3.47;3.20;;;;;;;24.41;43.94;98950.06;5055429;28;20243;-50
2021/08/25 06:33:10;;;;;;;3.30;2.97;;;;;;;24.47;43.91;98953.84;5053453;28;20205;-50
2021/08/25 06:35:36;;;;;;;3.30;3.00;;;;;;;24.40;44.10;98955.63;5054906;28;20250;-52
2021/08/25 06:38:03;;;;;;;3.20;3.00;;;;;;;24.38;44.28;98956.63;5055374;28;20193;-50
2021/08/25 06:40:32;;;;;;;2.87;2.67;;;;;;;24.40;44.27;98953.75;5055476;28;20192;-48
2021/08/25 06:42:59;;;;;;;3.73;2.87;;;;;;;24.40;44.23;98950.28;5056401;28;20217;-49
2021/08/25 06:45:26;;;;;;;3.83;2.80;;;;;;;24.41;44.31;98946.59;5059112;28;20200;-50
2021/08/25 06:47:52;;;;;;;3.00;2.70;;;;;;;24.41;44.25;98947.41;5059026;28;20189;-50
2021/08/25 06:50:19;;;;;;;4.10;3.00;;;;;;;24.44;44.42;98943.56;5058986;28;20593;-51
2021/08/25 06:52:45;;;;;;;3.20;2.90;;;;;;;24.45;44.58;98945.19;5058413;28;20632;-50
2021/08/25 06:55:12;;;;;;;2.73;2.53;;;;;;;24.43;44.59;98936.56;5058084;28;20239;-48
2021/08/25 06:57:38;;;;;;;10.63;3.10;;;;;;;24.41;44.46;98938.59;5057059;28;20616;-51
2021/08/25 07:00:05;;;;;;;2.90;2.70;;;;;;;24.35;44.40;98946.31;5058949;28;20194;-51
2021/08/25 07:02:32;;;;;;;2.97;2.67;;;;;;;24.39;44.30;98941.44;5058438;28;20206;-49
2021/08/25 07:04:59;;;;;;;2.87;2.67;;;;;;;24.52;43.81;98940.75;5059247;28;20211;-52
2021/08/25 07:07:25;;;;;;;2.97;2.77;;;;;;;24.59;43.91;98933.66;5058396;28;20564;-50
2021/08/25 07:09:52;;;;;;;3.63;3.33;;;;;;;24.56;43.90;98936.72;5058781;28;20193;-50
2021/08/25 07:12:20;;;;;;;3.50;3.20;;;;;;;24.62;43.65;98935.13;5058715;28;20205;-50
2021/08/25 07:14:47;;;;;;;4.27;3.20;;;;;;;24.62;43.71;98941.28;5058932;28;20190;-49
2021/08/25 07:17:13;;;;;;;3.43;3.13;;;;;;;24.62;43.82;98935.13;5058522;28;20197;-50
2021/08/25 07:19:41;;;;;;;4.07;2.97;;;;;;;24.67;43.70;98930.03;5058658;28;20235;-50
2021/08/25 07:22:09;;;;;;;2.70;2.50;;;;;;;24.62;43.80;98929.81;5056956;28;20610;-51
2021/08/25 07:24:35;;;;;;;3.43;3.13;;;;;;;24.60;44.05;98931.81;5055537;28;20186;-50
2021/08/25 07:27:02;;;;;;;3.00;2.63;;;;;;;24.58;44.10;98929.34;5055546;28;20197;-51
2021/08/25 07:29:29;;;;;;;4.27;3.20;;;;;;;24.56;44.23;98925.19;5057345;28;20521;-50
2021/08/25 07:31:55;;;;;;;3.40;3.10;;;;;;;24.46;44.34;98931.69;5056852;28;20209;-51
2021/08/25 07:34:22;;;;;;;4.07;2.67;;;;;;;24.53;44.12;98927.22;5056472;28;20235;-49
2021/08/25 07:36:48;;;;;;;8.63;3.17;;;;;;;24.55;44.30;98929.72;5055992;28;20660;-51
2021/08/25 07:39:15;;;;;;;4.87;3.20;;;;;;;24.56;44.14;98933.22;5056377;28;20197;-50
2021/08/25 07:41:41;;;;;;;7.17;3.30;;;;;;;24.58;44.24;98934.69;5055673;28;20193;-51
2021/08/25 07:44:08;;;;;;;4.43;3.53;;;;;;;24.60;44.08;98940.66;5055701;28;20279;-51
2021/08/25 07:46:34;;;;;;;6.50;3.67;;;;;;;24.62;43.97;98935.13;5055773;28;20185;-49
2021/08/25 07:49:03;;;;;;;4.93;3.70;;;;;;;24.62;43.91;98930.59;5061695;28;20182;-51
2021/08/25 07:51:29;;;;;;;3.97;3.50;;;;;;;24.62;44.27;98927.94;5063465;28;20322;-52
2021/08/25 07:53:59;;;;;;;5.50;3.90;;;;;;;24.59;44.15;98940.81;5062738;28;20213;-50
2021/08/25 07:56:25;;;;;;;5.43;4.23;;;;;;;24.61;44.06;98923.63;5061900;28;20297;-51
2021/08/25 07:58:52;;;;;;;6.27;4.13;;;;;;;24.57;44.16;98924.19;5060672;28;20193;-50
2021/08/25 08:01:18;;;;;;;6.00;4.00;;;;;;;24.59;43.86;98917.66;5060572;28;20185;-49
2021/08/25 08:03:45;;;;;;;7.67;5.00;;;;;;;24.65;43.58;98918.75;5060849;28;20193;-51
2021/08/25 08:06:12;;;;;;;8.73;4.90;;;;;;;24.68;43.52;98910.34;5059309;28;20613;-50
2021/08/25 08:08:38;;;;;;;6.20;5.23;;;;;;;24.76;43.59;98917.44;5058042;28;20194;-52
2021/08/25 08:11:05;;;;;;;8.33;4.97;;;;;;;24.80;43.56;98922.19;5059034;28;20193;-50
2021/08/25 08:13:31;;;;;;;9.43;5.10;;;;;;;24.84;43.49;98913.81;5060744;28;20205;-50
2021/08/25 08:15:58;;;;;;;10.20;6.37;;;;;;;24.92;43.44;98913.66;5060485;28;20197;-49
2021/08/25 08:18:31;;;;;;;15.63;10.30;;;;;;;24.96;43.65;98914.94;5056287;28;20660;-50
2021/08/25 08:20:58;;;;;;;21.13;13.30;;;;;;;24.96;43.48;98912.28;5057721;28;20174;-51
2021/08/25 08:23:25;;;;;;;28.60;16.70;;;;;;;24.91;43.71;98912.00;5058559;28;20220;-52
2021/08/25 08:25:55;;;;;;;23.47;16.40;;;;;;;24.92;44.01;98909.16;5058786;28;20632;-50
2021/08/25 08:28:22;;;;;;;25.87;16.53;;;;;;;24.98;43.80;98901.38;5058685;28;20216;-50
2021/08/25 08:30:48;;;;;;;39.17;24.10;;;;;;;24.97;44.09;98895.25;5057844;28;20714;-50
2021/08/25 08:33:15;;;;;;;32.60;21.23;;;;;;;24.97;43.93;98905.09;5058156;28;20619;-50
2021/08/25 08:35:42;;;;;;;31.07;19.07;;;;;;;24.96;44.32;98904.28;5057803;28;20217;-50
2021/08/25 08:38:08;;;;;;;33.57;21.87;;;;;;;24.98;44.05;98904.06;5058423;28;20220;-50
2021/08/25 08:40:35;;;;;;;28.70;18.43;;;;;;;24.98;44.51;98909.41;5057527;28;20189;-50
2021/08/25 08:43:07;;;;;;;30.97;18.07;;;;;;;25.02;44.38;98905.34;5058110;28;20239;-51
2021/08/25 08:45:39;;;;;;;22.63;14.87;;;;;;;25.03;44.13;98915.81;5057587;28;20239;-48
2021/08/25 08:48:12;;;;;;;23.93;15.00;;;;;;;25.02;43.77;98903.50;5061444;28;20170;-50
2021/08/25 08:50:40;;;;;;;21.60;14.13;;;;;;;25.02;43.61;98905.34;5061647;28;20238;-52
2021/08/25 08:53:09;;;;;;;21.97;14.17;;;;;;;25.02;43.60;98908.03;5061158;28;20212;-50
2021/08/25 08:55:36;;;;;;;20.17;13.17;;;;;;;24.99;43.73;98903.03;5060963;28;20185;-51
2021/08/25 08:58:03;;;;;;;16.33;11.20;;;;;;;24.99;43.79;98897.69;5060836;28;20668;-49
2021/08/25 09:00:30;;;;;;;16.87;10.60;;;;;;;25.03;43.26;98901.66;5058834;28;20655;-50
2021/08/25 09:02:57;;;;;;;15.10;10.77;;;;;;;24.93;43.43;98897.47;5057630;28;20215;-48
2021/08/25 09:05:27;;;;;;;13.07;9.10;;;;;;;24.92;43.26;98898.47;5055977;28;20208;-49
2021/08/25 09:08:00;;;;;;;12.87;8.63;;;;;;;24.89;43.17;98896.19;5056564;28;20194;-50
2021/08/25 09:10:35;;;;;;;10.00;6.83;;;;;;;24.92;42.86;98897.66;5056252;28;20589;-49
2021/08/25 09:13:04;;;;;;;11.03;8.67;;;;;;;24.88;43.35;98897.22;5055686;28;20262;-49
2021/08/25 09:15:33;;;;;;;8.30;6.67;;;;;;;24.89;42.75;98893.53;5056120;28;20660;-49
2021/08/25 09:18:13;;;;;;;10.63;8.13;;;;;;;24.92;42.77;98902.97;5055936;28;20239;-50
2021/08/25 09:20:44;;;;;;;8.73;6.90;;;;;;;24.89;42.72;98898.88;5056419;28;20595;-49
2021/08/25 09:23:23;;;;;;;8.53;7.13;;;;;;;24.90;42.77;98900.53;5056542;28;20213;-49
2021/08/25 09:25:59;;;;;;;8.00;6.90;;;;;;;24.94;42.34;98901.78;5055987;28;20243;-49
2021/08/25 09:28:34;;;;;;;8.87;6.37;;;;;;;24.99;42.28;98903.03;5056172;28;20177;-49
2021/08/25 09:31:01;;;;;;;10.10;7.57;;;;;;;24.99;42.47;98898.53;5056169;28;20173;-50
2021/08/25 09:33:36;;;;;;;8.30;6.90;;;;;;;25.01;42.69;98901.00;5055381;28;20793;-49
2021/08/25 09:36:05;;;;;;;7.50;6.20;;;;;;;25.02;42.34;98900.00;5055581;28;20180;-50
2021/08/25 09:38:34;;;;;;;5.47;4.57;;;;;;;24.98;41.59;98896.06;5056029;28;20186;-50
2021/08/25 09:41:12;;;;;;;6.40;4.60;;;;;;;24.96;40.73;98893.59;5055055;28;20189;-51
2021/08/25 09:43:44;;;;;;;8.20;6.10;;;;;;;24.91;41.16;98890.66;5054185;28;20224;-51
2021/08/25 09:46:13;;;;;;;7.43;5.87;;;;;;;24.85;41.63;98884.25;5054687;28;20185;-50
2021/08/25 09:48:49;;;;;;;7.70;5.37;;;;;;;24.82;41.51;98881.97;5054679;28;20190;-52
2021/08/25 09:51:21;;;;;;;7.00;4.87;;;;;;;24.83;41.59;98877.47;5054539;28;20649;-53
2021/08/25 09:53:50;;;;;;;7.30;5.17;;;;;;;24.83;41.37;98882.78;5054779;28;20614;-51
2021/08/25 09:56:27;;;;;;;8.80;5.20;;;;;;;24.82;41.49;98881.16;5055172;28;20189;-52
2021/08/25 09:58:55;;;;;;;6.67;5.33;;;;;;;24.86;41.51;98875.25;5055918;28;20173;-54
2021/08/25 10:01:22;;;;;;;9.73;5.67;;;;;;;24.97;41.57;98873.03;5055465;28;20196;-55
2021/08/25 10:03:49;;;;;;;7.07;5.90;;;;;;;25.09;41.35;98871.50;5054270;28;20213;-54
2021/08/25 10:06:20;;;;;;;7.20;5.47;;;;;;;25.20;41.72;98864.78;5055878;28;20181;-54
2021/08/25 10:08:47;;;;;;;6.53;5.83;;;;;;;25.25;41.92;98856.19;5054752;28;20242;-55
2021/08/25 10:11:15;;;;;;;8.90;5.60;;;;;;;25.32;41.90;98862.41;5056390;28;20218;-54
2021/08/25 10:13:42;;;;;;;6.33;5.07;;;;;;;25.37;41.93;98868.00;5055694;28;20220;-53
2021/08/25 10:16:13;;;;;;;6.20;5.50;;;;;;;25.40;41.95;98862.25;5055653;28;20200;-54
2021/08/25 10:18:43;;;;;;;6.37;5.67;;;;;;;25.44;42.12;98863.50;5060043;28;20181;-54
2021/08/25 10:21:36;;;;;;;5.73;5.23;;;;;;;25.45;41.90;98854.47;5059389;28;20197;-54
2021/08/25 10:24:05;;;;;;;5.50;5.00;;;;;;;25.49;42.03;98853.09;5061260;28;20562;-54
2021/08/25 10:26:52;;;;;;;7.20;5.30;;;;;;;25.46;42.11;98855.31;5060604;28;20185;-55
2021/08/25 10:29:18;;;;;;;5.93;5.33;;;;;;;25.43;42.00;98845.81;5059205;28;20194;-54
2021/08/25 10:31:48;;;;;;;5.70;5.07;;;;;;;25.43;42.06;98845.81;5060132;28;20193;-55
2021/08/25 10:34:18;;;;;;;5.53;4.90;;;;;;;25.40;42.04;98843.56;5061105;28;20251;-55
2021/08/25 10:36:44;;;;;;;5.50;4.90;;;;;;;25.46;42.04;98842.75;5060615;28;20193;-53
2021/08/25 10:39:38;;;;;;;5.20;4.60;;;;;;;25.44;42.14;98833.31;5060590;28;20592;-53
2021/08/25 10:42:06;;;;;;;5.30;4.57;;;;;;;25.44;41.96;98846.66;5059391;28;20233;-53
2021/08/25 10:44:41;;;;;;;5.97;4.80;;;;;;;25.47;41.87;98839.06;5060362;28;20193;-54
2021/08/25 10:47:10;;;;;;;6.00;5.00;;;;;;;25.51;41.91;98832.34;5060759;28;20203;-55
2021/08/25 10:49:48;;;;;;;5.33;4.83;;;;;;;25.46;41.75;98839.28;5059958;28;20201;-53
2021/08/25 10:52:14;;;;;;;5.10;4.60;;;;;;;25.44;41.83;98830.63;5060169;28;20209;-55
2021/08/25 10:54:49;;;;;;;6.43;4.70;;;;;;;25.53;41.69;98834.81;5060451;28;20292;-55
2021/08/25 10:57:18;;;;;;;5.43;4.93;;;;;;;25.52;42.04;98838.50;5059788;28;20192;-54
2021/08/25 10:59:45;;;;;;;5.03;4.53;;;;;;;25.52;42.08;98822.47;5060473;28;20193;-53
2021/08/25 11:02:11;;;;;;;5.90;4.60;;;;;;;25.50;41.80;98813.84;5060269;28;20692;-55
2021/08/25 11:04:39;;;;;;;4.83;4.30;;;;;;;25.50;41.94;98820.00;5060266;28;20189;-53
2021/08/25 11:07:10;;;;;;;4.37;3.97;;;;;;;25.51;41.99;98827.00;5059946;28;20193;-53
2021/08/25 11:09:37;;;;;;;5.10;4.60;;;;;;;25.50;41.99;98820.00;5060402;28;20185;-52
2021/08/25 11:12:18;;;;;;;5.23;4.73;;;;;;;25.55;41.97;98810.56;5060098;28;20212;-54
2021/08/25 11:14:49;;;;;;;5.00;4.43;;;;;;;25.55;42.01;98805.22;5059803;28;20201;-54
2021/08/25 11:17:20;;;;;;;4.80;4.40;;;;;;;25.55;41.97;98806.03;5059803;28;20535;-54
2021/08/25 11:19:53;;;;;;;4.40;4.00;;;;;;;25.50;41.81;98803.16;5060113;28;20243;-54
2021/08/25 11:22:24;;;;;;;5.17;4.67;;;;;;;25.50;42.20;98803.97;5059428;28;20209;-52
2021/08/25 11:25:00;;;;;;;4.47;4.07;;;;;;;25.49;42.21;98797.00;5060167;28;20190;-54
2021/08/25 11:27:35;;;;;;;4.73;4.17;;;;;;;25.51;41.93;98800.28;5059503;28;20239;-52
2021/08/25 11:30:19;;;;;;;4.50;3.97;;;;;;;25.51;41.97;98789.59;5058560;28;20184;-54
2021/08/25 11:33:00;;;;;;;4.73;4.30;;;;;;;25.46;42.05;98786.66;5059984;28;20304;-52
2021/08/25 11:35:29;;;;;;;4.47;4.07;;;;;;;25.48;42.19;98784.63;5059171;28;20201;-52